Search for airport 
image banner adimage banner ad
image banner ad

SVON - Cabimas

Located in Oro Negro Zulia, Venezuela

ICAO - SVON, IATA - CBS

Data provided by Airmate  

General information

Coordinates: N10°19'48" W71°19'21"
Elevation is 164 feet MSL.
 
View others Airports in Zulia

Operational data

Open for public use
Current time UTC:
Current local time:
Weather at : SVMC - Maracaibo / La Chinita Intl ( 51 km )
METAR: SVMC 262002Z AUTO 02005KT NCD 33/21 Q1008
TAF: TAF SVMC 261600Z 2618/2718 18003KT 9999 FEW013 TX35/2619Z TN24/2508Z TEMPO 2618/2622 19003KT 9000 DZ BKN016
View NOTAMs / SUP AIP / TFR affecting this airport [VIEW]
Communications frequencies: [VIEW]

Runways:

RWY identifierQFULength (ft)Width (ft)SurfaceLDA (ft)
0656°616095ASP
2400

Airport contact information

Address: Oro Negro Zulia Venezuela

Satellite view of SVON